createdAt,value
2023-03-21T00:00:25.391Z,24.05
2023-03-21T00:01:26.957Z,23.67
2023-03-21T00:02:28.513Z,22.57
2023-03-21T00:03:32.081Z,22.23
2023-03-21T00:04:48.548Z,22.38
2023-03-21T00:05:53.586Z,22.87
2023-03-21T00:06:55.365Z,22.72
2023-03-21T00:07:56.962Z,22.85
2023-03-21T00:08:58.600Z,22.33
2023-03-21T00:11:21.662Z,22.00
2023-03-21T00:12:23.259Z,22.23
2023-03-21T00:13:26.377Z,21.70
2023-03-21T00:14:29.113Z,20.62
2023-03-21T00:15:39.915Z,21.28
2023-03-21T00:16:44.415Z,21.12
2023-03-21T00:17:46.135Z,20.88
2023-03-21T00:18:49.635Z,19.95
2023-03-21T00:19:54.097Z,20.35
2023-03-21T00:21:15.751Z,19.92
2023-03-21T00:22:19.309Z,21.43
2023-03-21T00:23:20.871Z,21.10
2023-03-21T00:24:23.425Z,20.38
2023-03-21T00:25:25.054Z,20.98
2023-03-21T00:26:26.954Z,20.27
2023-03-21T00:27:49.966Z,20.72
2023-03-21T00:28:51.162Z,20.20
2023-03-21T00:29:53.432Z,20.60
2023-03-21T00:31:01.098Z,20.92
2023-03-21T00:32:02.633Z,21.38
2023-03-21T00:33:15.835Z,21.22
2023-03-21T00:34:32.055Z,22.43
2023-03-21T00:35:58.386Z,22.07
2023-03-21T00:37:06.316Z,21.65
2023-03-21T00:38:07.869Z,22.27
2023-03-21T00:39:09.465Z,21.15
2023-03-21T00:40:23.155Z,21.63
2023-03-21T00:41:41.385Z,21.20
2023-03-21T00:42:43.871Z,20.75
2023-03-21T00:43:45.473Z,20.98
2023-03-21T00:44:47.030Z,20.78
2023-03-21T00:45:50.103Z,21.62
2023-03-21T00:47:06.262Z,20.73
2023-03-21T00:48:08.894Z,21.47
2023-03-21T00:49:10.478Z,22.35
2023-03-21T00:50:12.098Z,22.63
2023-03-21T00:51:22.523Z,22.62
2023-03-21T00:52:34.393Z,22.28
2023-03-21T00:53:42.686Z,22.05
2023-03-21T00:54:44.427Z,21.03
2023-03-21T00:55:46.381Z,20.57
2023-03-21T00:56:47.954Z,20.58
2023-03-21T00:57:56.280Z,20.35
2023-03-21T00:59:03.010Z,20.57
2023-03-21T01:00:05.016Z,20.47
2023-03-21T01:01:06.815Z,19.97
2023-03-21T01:02:08.433Z,20.00
2023-03-21T01:03:23.612Z,19.22
2023-03-21T01:04:27.686Z,18.43
2023-03-21T01:05:30.964Z,19.52
2023-03-21T01:06:37.248Z,18.53
2023-03-21T01:07:38.769Z,18.67
2023-03-21T01:08:52.541Z,18.58
2023-03-21T01:09:54.833Z,18.52
2023-03-21T01:10:57.236Z,18.10
2023-03-21T01:11:58.881Z,18.27
2023-03-21T01:13:00.442Z,18.22
2023-03-21T01:14:18.700Z,17.80
2023-03-21T01:15:23.406Z,20.05
2023-03-21T01:16:25.448Z,19.23
2023-03-21T01:17:27.041Z,18.08
2023-03-21T01:18:30.060Z,18.63
2023-03-21T01:19:48.373Z,18.12
2023-03-21T01:20:52.391Z,18.40
2023-03-21T01:21:54.649Z,18.30
2023-03-21T01:22:56.226Z,18.45
2023-03-21T01:23:57.784Z,18.27
2023-03-21T01:25:12.078Z,17.85
2023-03-21T01:26:21.464Z,18.00
2023-03-21T01:27:23.062Z,17.98
2023-03-21T01:28:28.941Z,17.85
2023-03-21T01:29:30.496Z,18.70
2023-03-21T01:30:36.926Z,18.62
2023-03-21T01:31:43.523Z,18.43
2023-03-21T01:32:45.085Z,17.35
2023-03-21T01:33:47.173Z,18.18
2023-03-21T01:34:48.792Z,18.93
2023-03-21T01:35:57.643Z,17.97
2023-03-21T01:37:08.094Z,17.87
2023-03-21T01:38:10.546Z,16.77
2023-03-21T01:39:12.077Z,16.98
2023-03-21T01:40:24.190Z,17.03
2023-03-21T01:41:42.123Z,16.45
2023-03-21T01:42:44.369Z,17.23
2023-03-21T01:43:46.654Z,17.48
2023-03-21T01:45:34.092Z,17.37
2023-03-21T01:46:56.996Z,17.53
2023-03-21T01:48:05.519Z,18.13
2023-03-21T01:49:24.840Z,17.93
2023-03-21T01:50:27.255Z,18.43
2023-03-21T01:51:33.024Z,17.98
2023-03-21T01:52:38.741Z,18.07
2023-03-21T01:53:41.901Z,18.20
2023-03-21T01:54:46.232Z,17.73
2023-03-21T01:55:49.097Z,18.22
2023-03-21T01:56:53.733Z,18.28
2023-03-21T01:58:05.747Z,17.75
2023-03-21T01:59:47.557Z,18.82
2023-03-21T02:00:51.784Z,16.70
2023-03-21T02:01:53.455Z,17.75
2023-03-21T02:03:00.488Z,17.88
2023-03-21T02:04:04.931Z,18.22
2023-03-21T02:05:06.790Z,18.32
2023-03-21T02:06:41.932Z,18.68
2023-03-21T02:07:43.712Z,18.93
2023-03-21T02:08:45.284Z,19.32
2023-03-21T02:09:49.979Z,19.35
2023-03-21T02:10:51.869Z,20.35
2023-03-21T02:11:54.564Z,22.07
2023-03-21T02:13:02.299Z,22.12
2023-03-21T02:14:06.720Z,21.50
2023-03-21T02:15:10.427Z,21.33
2023-03-21T02:16:28.781Z,21.23
2023-03-21T02:17:45.081Z,22.28
2023-03-21T02:18:46.588Z,22.87
2023-03-21T02:20:17.563Z,22.47
2023-03-21T02:21:49.585Z,21.88
2023-03-21T02:23:06.278Z,21.70
2023-03-21T02:25:10.791Z,20.90
2023-03-21T02:26:52.476Z,20.55
2023-03-21T02:28:12.095Z,21.12
2023-03-21T02:29:28.740Z,20.92
2023-03-21T02:30:55.951Z,20.97
2023-03-21T02:32:20.265Z,20.33
2023-03-21T02:33:37.856Z,19.80
2023-03-21T02:35:02.089Z,20.15
2023-03-21T02:36:15.589Z,19.93
2023-03-21T02:37:38.440Z,20.93
2023-03-21T02:38:49.348Z,18.37
2023-03-21T02:40:06.654Z,18.33
2023-03-21T02:41:45.593Z,17.35
2023-03-21T02:43:00.049Z,17.03
2023-03-21T02:44:25.528Z,17.58
2023-03-21T02:45:36.140Z,18.48
2023-03-21T02:46:49.042Z,19.07
2023-03-21T02:48:23.793Z,19.47
2023-03-21T02:49:42.005Z,20.03
2023-03-21T02:50:48.636Z,19.33
2023-03-21T02:51:51.652Z,18.90
2023-03-21T02:52:54.791Z,19.22
2023-03-21T02:54:29.965Z,18.93
2023-03-21T02:55:36.196Z,18.98
2023-03-21T02:56:39.381Z,18.00
2023-03-21T02:57:46.725Z,18.77
2023-03-21T02:58:49.332Z,19.00
2023-03-21T02:59:55.738Z,18.95
2023-03-21T03:01:00.032Z,18.68
2023-03-21T03:02:05.343Z,17.95
2023-03-21T03:03:10.464Z,18.40
2023-03-21T03:04:20.902Z,17.22
2023-03-21T03:05:28.564Z,17.93
2023-03-21T03:06:52.047Z,18.55
2023-03-21T03:08:36.178Z,17.62
2023-03-21T03:09:47.209Z,16.98
2023-03-21T03:11:14.942Z,16.77
2023-03-21T03:12:25.565Z,16.43
2023-03-21T03:13:27.040Z,16.67
2023-03-21T03:15:02.969Z,16.25
2023-03-21T03:16:31.880Z,16.63
2023-03-21T03:18:09.776Z,17.43
2023-03-21T03:19:22.749Z,16.92
2023-03-21T03:20:49.702Z,16.72
2023-03-21T03:22:03.870Z,17.28
2023-03-21T03:23:20.891Z,17.47
2023-03-21T03:24:29.801Z,19.15
2023-03-21T03:25:59.073Z,19.48
2023-03-21T03:27:10.356Z,18.77
2023-03-21T03:28:15.021Z,19.15
2023-03-21T03:29:20.502Z,18.95
2023-03-21T03:30:29.641Z,19.48
2023-03-21T03:31:40.819Z,17.75
2023-03-21T03:32:51.177Z,17.28
2023-03-21T03:33:57.884Z,18.12
2023-03-21T03:34:59.550Z,18.05
2023-03-21T03:36:06.492Z,20.85
2023-03-21T03:37:14.140Z,23.30
2023-03-21T03:38:18.588Z,23.15
2023-03-21T03:39:20.207Z,22.00
2023-03-21T03:40:40.056Z,18.53
2023-03-21T03:42:12.615Z,19.72
2023-03-21T03:43:31.681Z,20.52
2023-03-21T03:44:35.261Z,20.28
2023-03-21T03:45:48.534Z,20.70
2023-03-21T03:46:56.356Z,21.23
2023-03-21T03:48:07.541Z,24.62
2023-03-21T03:49:18.015Z,25.28
2023-03-21T03:50:42.080Z,22.58
2023-03-21T03:52:04.677Z,21.55
2023-03-21T03:53:18.821Z,21.87
2023-03-21T03:54:29.626Z,21.38
2023-03-21T03:55:32.955Z,22.30
2023-03-21T03:56:34.734Z,24.23
2023-03-21T03:57:36.638Z,24.28
2023-03-21T03:58:45.731Z,22.72
2023-03-21T03:59:47.963Z,22.90
2023-03-21T04:00:49.578Z,23.60
2023-03-21T04:01:51.548Z,24.68
2023-03-21T04:02:53.279Z,26.87
2023-03-21T04:04:10.425Z,26.13
2023-03-21T04:05:14.317Z,26.40
2023-03-21T04:06:16.939Z,25.75
2023-03-21T04:07:20.297Z,26.42
2023-03-21T04:08:21.861Z,25.90
2023-03-21T04:09:34.037Z,26.18
2023-03-21T04:10:39.567Z,26.85
2023-03-21T04:11:41.160Z,24.73
2023-03-21T04:12:43.162Z,23.40
2023-03-21T04:13:44.800Z,23.05
2023-03-21T04:14:47.489Z,22.82
2023-03-21T04:15:49.468Z,23.33
2023-03-21T04:16:51.459Z,22.57
2023-03-21T04:17:53.141Z,22.23
2023-03-21T04:18:54.807Z,22.40
2023-03-21T04:20:05.507Z,20.93
2023-03-21T04:21:12.648Z,20.13
2023-03-21T04:22:14.454Z,20.50
2023-03-21T04:23:16.029Z,20.57
2023-03-21T04:24:17.625Z,21.05
2023-03-21T04:25:32.326Z,20.40
2023-03-21T04:26:34.818Z,19.87
2023-03-21T04:27:36.552Z,20.92
2023-03-21T04:28:38.211Z,21.13
2023-03-21T04:29:39.886Z,20.85
2023-03-21T04:30:41.688Z,21.03
2023-03-21T04:31:46.713Z,20.97
2023-03-21T04:32:48.260Z,21.45
2023-03-21T04:33:49.782Z,20.88
2023-03-21T04:34:51.705Z,22.65
2023-03-21T04:35:53.608Z,24.87
2023-03-21T04:36:55.887Z,26.68
2023-03-21T04:37:57.457Z,23.88
2023-03-21T04:38:59.229Z,25.67
2023-03-21T04:40:01.886Z,25.88
2023-03-21T04:41:03.764Z,24.58
2023-03-21T04:42:05.364Z,24.05
2023-03-21T04:43:07.139Z,23.32
2023-03-21T04:44:09.417Z,22.70
2023-03-21T04:45:11.295Z,22.83
2023-03-21T04:46:13.386Z,21.90
2023-03-21T04:47:16.358Z,20.53
2023-03-21T04:48:18.148Z,20.18
2023-03-21T04:49:19.922Z,19.58
2023-03-21T04:50:21.484Z,18.63
2023-03-21T04:51:23.096Z,16.90
2023-03-21T04:52:25.474Z,17.68
2023-03-21T04:53:27.113Z,16.75
2023-03-21T04:54:28.916Z,16.32
2023-03-21T04:55:30.477Z,16.23
2023-03-21T04:56:32.192Z,16.58
2023-03-21T04:57:33.729Z,16.02
2023-03-21T04:58:35.255Z,14.68
2023-03-21T04:59:36.981Z,16.08
2023-03-21T05:00:38.589Z,17.45
2023-03-21T05:01:40.133Z,18.10
2023-03-21T05:02:41.852Z,20.00
2023-03-21T05:03:43.470Z,19.65
2023-03-21T05:04:45.165Z,20.10
2023-03-21T05:05:48.055Z,19.10
2023-03-21T05:06:49.593Z,18.75
2023-03-21T05:07:51.172Z,23.02
2023-03-21T05:08:52.755Z,34.68
2023-03-21T05:09:54.634Z,42.13
2023-03-21T05:10:56.310Z,43.58
2023-03-21T05:11:57.904Z,38.50
2023-03-21T05:12:59.485Z,34.25
2023-03-21T05:14:01.100Z,28.83
2023-03-21T05:15:02.914Z,24.65
2023-03-21T05:16:04.820Z,30.02
2023-03-21T05:17:06.422Z,40.60
2023-03-21T05:18:07.989Z,37.98
2023-03-21T05:19:10.224Z,34.22
2023-03-21T05:20:12.092Z,43.68
2023-03-21T05:21:13.660Z,44.75
2023-03-21T05:22:15.209Z,37.82
2023-03-21T05:23:16.801Z,25.62
2023-03-21T05:24:22.199Z,21.57
2023-03-21T05:25:24.049Z,22.33
2023-03-21T05:26:25.865Z,29.93
2023-03-21T05:27:27.437Z,40.32
2023-03-21T05:28:28.961Z,41.85
2023-03-21T05:29:32.023Z,35.28
2023-03-21T05:30:33.757Z,34.38
2023-03-21T05:31:35.677Z,24.10
2023-03-21T05:32:37.370Z,22.12
2023-03-21T05:33:38.920Z,23.05
2023-03-21T05:34:40.517Z,21.45
2023-03-21T05:35:42.272Z,22.20
2023-03-21T05:36:43.879Z,21.48
2023-03-21T05:37:45.447Z,21.43
2023-03-21T05:38:47.090Z,22.13
2023-03-21T05:39:48.669Z,21.82
2023-03-21T05:40:51.397Z,21.57
2023-03-21T05:42:54.616Z,21.98
2023-03-21T05:43:56.182Z,21.90
2023-03-21T05:44:58.004Z,22.77
2023-03-21T05:45:59.748Z,22.18
2023-03-21T05:47:01.353Z,21.53
2023-03-21T05:48:03.029Z,21.43
2023-03-21T05:49:04.619Z,22.30
2023-03-21T05:50:06.887Z,23.78
2023-03-21T05:51:08.693Z,25.85
2023-03-21T05:52:10.680Z,27.22
2023-03-21T05:53:12.504Z,25.23
2023-03-21T05:54:14.181Z,23.85
2023-03-21T05:55:15.796Z,23.65
2023-03-21T05:56:17.805Z,23.18
2023-03-21T05:57:19.436Z,23.13
2023-03-21T05:58:20.998Z,22.58
2023-03-21T05:59:22.590Z,23.02
2023-03-21T06:00:24.495Z,22.20
2023-03-21T06:01:26.238Z,23.98
2023-03-21T06:02:28.217Z,22.18
2023-03-21T06:03:29.917Z,20.40
2023-03-21T06:04:31.581Z,19.92
2023-03-21T06:05:33.150Z,19.35
2023-03-21T06:06:34.865Z,20.25
2023-03-21T06:07:36.901Z,21.40
2023-03-21T06:08:38.542Z,22.57
2023-03-21T06:09:40.085Z,24.28
2023-03-21T06:10:41.621Z,23.88
2023-03-21T06:11:48.011Z,22.90
2023-03-21T06:12:49.573Z,23.55
2023-03-21T06:13:51.332Z,21.97
2023-03-21T06:14:52.928Z,21.92
2023-03-21T06:15:54.505Z,22.02
2023-03-21T06:16:56.244Z,21.23
2023-03-21T06:17:57.841Z,18.20
2023-03-21T06:18:59.445Z,17.08
2023-03-21T06:20:02.115Z,16.27
2023-03-21T06:21:03.793Z,15.70
2023-03-21T06:22:05.421Z,17.10
2023-03-21T06:23:07.266Z,18.00
2023-03-21T06:24:09.669Z,18.47
2023-03-21T06:25:11.388Z,17.85
2023-03-21T06:26:13.788Z,17.28
2023-03-21T06:27:15.732Z,19.52
2023-03-21T06:28:17.401Z,18.25
2023-03-21T06:29:18.974Z,16.22
2023-03-21T06:30:20.918Z,15.45
2023-03-21T06:31:22.638Z,14.10
2023-03-21T06:32:25.045Z,14.58
2023-03-21T06:33:26.648Z,15.40
2023-03-21T06:34:28.183Z,16.93
2023-03-21T06:35:29.779Z,16.88
2023-03-21T06:36:31.361Z,16.38
2023-03-21T06:37:33.129Z,17.35
2023-03-21T06:38:34.725Z,16.00
2023-03-21T06:39:36.504Z,16.22
2023-03-21T06:40:38.701Z,16.40
2023-03-21T06:41:40.489Z,15.55
2023-03-21T06:42:42.206Z,15.80
2023-03-21T06:43:44.572Z,16.62
2023-03-21T06:44:46.113Z,16.10
2023-03-21T06:45:47.691Z,16.27
2023-03-21T06:46:49.407Z,17.08
2023-03-21T06:47:51.138Z,19.92
2023-03-21T06:48:52.753Z,21.18
2023-03-21T06:49:54.325Z,21.92
2023-03-21T06:50:55.866Z,23.10
2023-03-21T06:51:57.488Z,24.93
2023-03-21T06:52:59.570Z,25.25
2023-03-21T06:54:01.203Z,24.98
2023-03-21T06:55:02.993Z,24.73
2023-03-21T06:56:04.850Z,23.90
2023-03-21T06:57:07.497Z,24.47
2023-03-21T06:58:09.086Z,24.13
2023-03-21T06:59:10.846Z,25.03
2023-03-21T07:00:12.987Z,23.47
2023-03-21T07:01:14.691Z,21.08
2023-03-21T07:02:16.500Z,21.08
2023-03-21T07:03:20.714Z,21.90
2023-03-21T07:04:22.277Z,21.27
2023-03-21T07:05:24.256Z,21.82
2023-03-21T07:06:26.170Z,21.33
2023-03-21T07:07:27.740Z,21.97
2023-03-21T07:08:29.505Z,20.12
2023-03-21T07:09:31.112Z,18.50
2023-03-21T07:10:32.802Z,17.55
2023-03-21T07:11:36.988Z,16.12
2023-03-21T07:12:38.535Z,15.98
2023-03-21T07:13:40.251Z,15.78
2023-03-21T07:14:41.875Z,16.45
2023-03-21T07:15:43.527Z,16.08
2023-03-21T07:16:45.217Z,17.60
2023-03-21T07:17:46.854Z,18.30
2023-03-21T07:18:48.741Z,18.90
2023-03-21T07:19:50.312Z,21.87
2023-03-21T07:20:52.161Z,26.43
2023-03-21T07:21:53.778Z,25.45
2023-03-21T07:22:55.406Z,25.27
2023-03-21T07:23:57.230Z,24.88
2023-03-21T07:25:04.653Z,24.68
2023-03-21T07:26:07.283Z,23.70
2023-03-21T07:27:08.849Z,20.97
2023-03-21T07:28:10.409Z,18.17
2023-03-21T07:29:12.055Z,14.43
2023-03-21T07:30:14.607Z,12.82
2023-03-21T07:31:17.617Z,12.82
2023-03-21T07:32:19.209Z,13.42
2023-03-21T07:33:21.332Z,12.77
2023-03-21T07:34:22.952Z,12.98
2023-03-21T07:35:24.549Z,12.20
2023-03-21T07:36:26.183Z,12.50
2023-03-21T07:37:27.856Z,11.93
2023-03-21T07:38:29.449Z,12.75
2023-03-21T07:39:31.209Z,12.80
2023-03-21T07:40:33.613Z,13.45
2023-03-21T07:41:35.280Z,14.08
2023-03-21T07:42:38.419Z,13.75
2023-03-21T07:43:39.987Z,13.35
2023-03-21T07:44:41.593Z,12.28
2023-03-21T07:45:44.015Z,13.08
2023-03-21T07:46:45.615Z,12.97
2023-03-21T07:47:48.398Z,12.52
2023-03-21T07:48:52.307Z,12.08
2023-03-21T07:49:54.024Z,12.50
2023-03-21T07:50:55.902Z,12.77
2023-03-21T07:51:57.514Z,12.27
2023-03-21T07:52:59.036Z,12.62
2023-03-21T07:54:00.593Z,12.33
2023-03-21T07:55:02.341Z,12.20
2023-03-21T07:56:04.190Z,12.68
2023-03-21T07:57:05.777Z,12.37
2023-03-21T07:58:07.411Z,12.73
2023-03-21T07:59:08.981Z,12.37
2023-03-21T08:00:11.287Z,13.88
2023-03-21T08:01:12.890Z,13.67
2023-03-21T08:02:16.526Z,13.50
2023-03-21T08:03:18.175Z,13.87
2023-03-21T08:04:19.928Z,13.68
2023-03-21T08:05:29.780Z,14.28
2023-03-21T08:06:31.309Z,14.47
2023-03-21T08:07:32.901Z,14.32
2023-03-21T08:08:34.449Z,14.65
2023-03-21T08:09:36.845Z,14.90
2023-03-21T08:10:38.561Z,16.07
2023-03-21T08:11:40.305Z,15.20
2023-03-21T08:12:41.975Z,15.57
2023-03-21T08:13:43.542Z,16.33
2023-03-21T08:14:45.081Z,15.73
2023-03-21T08:15:46.838Z,14.65
2023-03-21T08:16:48.404Z,14.78
2023-03-21T08:17:50.240Z,14.48
2023-03-21T08:18:51.830Z,13.45
2023-03-21T08:19:53.429Z,13.25
2023-03-21T08:20:57.157Z,13.45
2023-03-21T08:21:58.742Z,13.18
2023-03-21T08:23:00.305Z,14.07
2023-03-21T08:24:01.875Z,13.45
2023-03-21T08:25:06.115Z,14.00
2023-03-21T08:26:07.927Z,13.40
2023-03-21T08:27:09.493Z,12.72
2023-03-21T08:28:11.045Z,12.75
2023-03-21T08:29:13.722Z,12.38
2023-03-21T08:30:17.687Z,12.45
2023-03-21T08:31:19.650Z,11.97
2023-03-21T08:32:21.431Z,11.03
2023-03-21T08:33:23.096Z,11.65
2023-03-21T08:34:24.726Z,11.58
2023-03-21T08:35:26.643Z,11.13
2023-03-21T08:36:28.349Z,11.10
2023-03-21T08:37:30.037Z,11.78
2023-03-21T08:38:31.871Z,11.20
2023-03-21T08:39:33.474Z,12.27
2023-03-21T08:40:35.773Z,11.98
2023-03-21T08:41:38.152Z,12.55
2023-03-21T08:42:40.907Z,12.32
2023-03-21T08:43:42.621Z,11.33
2023-03-21T08:44:44.202Z,10.98
2023-03-21T08:45:45.877Z,9.85
2023-03-21T08:46:47.476Z,10.10
2023-03-21T08:47:49.078Z,10.17
2023-03-21T08:48:50.799Z,10.27
2023-03-21T08:49:52.421Z,11.47
2023-03-21T08:50:53.972Z,11.73
2023-03-21T08:51:56.393Z,10.33
2023-03-21T08:52:57.965Z,10.07
2023-03-21T08:53:59.620Z,11.32
2023-03-21T08:55:01.425Z,11.58
2023-03-21T08:56:03.024Z,10.18
2023-03-21T08:57:04.640Z,9.28
2023-03-21T08:58:06.495Z,9.62
2023-03-21T08:59:08.045Z,10.17
2023-03-21T09:00:12.759Z,9.70
2023-03-21T09:01:14.304Z,9.98
2023-03-21T09:02:17.741Z,9.37
2023-03-21T09:03:20.260Z,8.70
2023-03-21T09:04:21.794Z,8.07
2023-03-21T09:05:23.419Z,8.03
2023-03-21T09:06:27.801Z,7.50
2023-03-21T09:07:29.457Z,7.75
2023-03-21T09:08:31.007Z,7.92
2023-03-21T09:09:32.674Z,7.78
2023-03-21T09:10:34.289Z,7.58
2023-03-21T09:11:35.832Z,7.60
2023-03-21T09:12:37.824Z,7.95
2023-03-21T09:13:39.341Z,8.02
2023-03-21T09:14:40.898Z,8.63
2023-03-21T09:15:42.499Z,8.75
2023-03-21T09:16:44.049Z,7.87
2023-03-21T09:17:45.897Z,7.52
2023-03-21T09:18:47.554Z,6.93
2023-03-21T09:19:49.146Z,7.45
2023-03-21T09:20:50.676Z,7.47
2023-03-21T09:21:52.294Z,7.35
2023-03-21T09:22:54.124Z,7.45
2023-03-21T09:23:55.740Z,7.35
2023-03-21T09:24:57.294Z,6.63
2023-03-21T09:25:58.832Z,6.23
2023-03-21T09:27:00.396Z,6.92
2023-03-21T09:28:02.821Z,7.30
2023-03-21T09:29:04.835Z,6.65
2023-03-21T09:30:07.339Z,6.60
2023-03-21T09:31:09.896Z,6.70
2023-03-21T09:32:11.580Z,6.13
2023-03-21T09:33:13.311Z,6.33
2023-03-21T09:34:15.136Z,6.28
2023-03-21T09:35:18.056Z,6.68
2023-03-21T09:36:20.087Z,6.15
2023-03-21T09:37:21.868Z,6.78
2023-03-21T09:38:23.712Z,6.55
2023-03-21T09:39:25.328Z,6.37
2023-03-21T09:40:37.068Z,6.53
2023-03-21T09:42:03.004Z,6.18
2023-03-21T09:43:27.668Z,8.22
2023-03-21T09:44:32.252Z,13.65
2023-03-21T09:45:46.976Z,7.83
2023-03-21T09:46:54.907Z,5.92
2023-03-21T09:47:57.267Z,5.27
2023-03-21T09:49:10.583Z,5.82
2023-03-21T09:50:37.077Z,5.32
2023-03-21T09:51:49.737Z,5.30
2023-03-21T09:53:01.774Z,5.35
2023-03-21T09:54:18.889Z,5.13
2023-03-21T09:55:23.949Z,5.47
2023-03-21T09:56:25.665Z,5.87
2023-03-21T09:57:37.963Z,5.13
2023-03-21T09:58:51.581Z,5.78
2023-03-21T09:59:56.252Z,5.17
2023-03-21T10:01:09.628Z,5.40
2023-03-21T10:02:35.755Z,5.73
2023-03-21T10:03:37.933Z,5.42
2023-03-21T10:04:39.568Z,5.75
2023-03-21T10:05:42.631Z,5.62
2023-03-21T10:06:51.377Z,5.38
2023-03-21T10:08:13.736Z,5.45
2023-03-21T10:09:19.261Z,5.30
2023-03-21T10:10:35.545Z,5.65
2023-03-21T10:11:44.748Z,5.35
2023-03-21T10:12:48.701Z,5.22
2023-03-21T10:13:59.467Z,5.27
2023-03-21T10:15:02.364Z,4.88
2023-03-21T10:16:17.368Z,5.10
2023-03-21T10:17:33.924Z,4.72
2023-03-21T10:18:37.237Z,4.77
2023-03-21T10:19:38.823Z,4.38
2023-03-21T10:20:42.860Z,4.67
2023-03-21T10:22:00.635Z,4.40
2023-03-21T10:23:07.803Z,4.80
2023-03-21T10:24:19.327Z,5.08
2023-03-21T10:25:34.410Z,5.08
2023-03-21T10:26:35.961Z,4.48
2023-03-21T10:27:37.788Z,4.48
2023-03-21T10:28:52.506Z,4.63
2023-03-21T10:29:54.664Z,5.25
2023-03-21T10:31:00.781Z,4.85
2023-03-21T10:32:02.980Z,4.92
2023-03-21T10:33:08.626Z,5.20
2023-03-21T10:34:18.823Z,4.45
2023-03-21T10:35:21.239Z,3.87
2023-03-21T10:36:29.525Z,3.40
2023-03-21T10:37:31.770Z,3.82
2023-03-21T10:38:35.205Z,4.45
2023-03-21T10:39:42.979Z,4.67
2023-03-21T10:40:44.778Z,9.03
2023-03-21T10:41:46.522Z,18.48
2023-03-21T10:42:48.093Z,6.88
2023-03-21T10:44:09.624Z,3.95
2023-03-21T10:45:17.848Z,3.80
2023-03-21T10:46:21.530Z,4.25
2023-03-21T10:47:28.922Z,3.55
2023-03-21T10:48:36.372Z,3.62
2023-03-21T10:50:02.136Z,3.50
2023-03-21T10:51:00.907Z,3.52
2023-03-21T10:52:07.266Z,3.43
2023-03-21T10:53:38.756Z,3.93
2023-03-21T10:54:40.466Z,3.70
2023-03-21T10:55:43.078Z,4.03
2023-03-21T10:57:21.189Z,3.27
2023-03-21T10:58:31.267Z,2.87
2023-03-21T10:59:45.146Z,2.52
2023-03-21T11:00:47.902Z,2.43
2023-03-21T11:01:52.649Z,2.42
2023-03-21T11:02:54.605Z,2.50
2023-03-21T11:04:14.646Z,2.30
2023-03-21T11:05:34.982Z,2.65
2023-03-21T11:06:40.721Z,2.12
2023-03-21T11:07:42.622Z,2.03
2023-03-21T11:08:48.979Z,2.28
2023-03-21T11:09:55.750Z,2.73
2023-03-21T11:11:02.647Z,2.65
2023-03-21T11:12:11.448Z,2.80
2023-03-21T11:13:32.992Z,3.00
2023-03-21T11:14:40.320Z,3.13
2023-03-21T11:15:44.802Z,3.18
2023-03-21T11:16:46.489Z,3.47
2023-03-21T11:17:48.071Z,3.42
2023-03-21T11:18:51.942Z,3.05
2023-03-21T11:20:06.562Z,3.20
2023-03-21T11:21:12.200Z,3.55
2023-03-21T11:22:15.589Z,3.72
2023-03-21T11:23:20.429Z,3.93
2023-03-21T11:24:22.479Z,4.13
2023-03-21T11:25:39.361Z,5.03
2023-03-21T11:26:44.309Z,5.65
2023-03-21T11:27:54.660Z,5.43
2023-03-21T11:28:57.077Z,5.38
2023-03-21T11:30:01.854Z,5.62
2023-03-21T11:31:05.803Z,5.58
2023-03-21T12:30:43.974Z,19.60
2023-03-21T12:32:18.780Z,19.48
2023-03-21T12:33:20.291Z,19.90
2023-03-21T12:34:49.882Z,20.88
2023-03-21T12:36:03.528Z,20.73
2023-03-21T12:37:31.443Z,19.98
2023-03-21T12:38:42.110Z,20.17
2023-03-21T12:39:47.782Z,20.27
2023-03-21T12:40:55.237Z,19.48
2023-03-21T12:42:50.696Z,19.05
2023-03-21T12:44:15.344Z,18.88
2023-03-21T12:45:34.249Z,18.53
2023-03-21T12:47:01.124Z,18.30
2023-03-21T12:48:40.966Z,18.43
2023-03-21T12:50:05.880Z,18.38
2023-03-21T12:51:13.354Z,17.70
2023-03-21T12:52:23.812Z,17.57
2023-03-21T12:53:49.870Z,17.77
2023-03-21T12:55:26.985Z,17.83
2023-03-21T12:56:40.551Z,18.40
2023-03-21T12:57:58.113Z,17.62
2023-03-21T12:59:22.394Z,16.27
2023-03-21T13:00:27.737Z,16.93
2023-03-21T13:01:30.289Z,17.85
2023-03-21T13:02:37.990Z,17.02
2023-03-21T13:03:44.448Z,16.65
2023-03-21T13:05:04.554Z,16.70
2023-03-21T13:06:09.390Z,16.50
2023-03-21T13:07:17.329Z,16.27
2023-03-21T13:08:34.021Z,16.63
2023-03-21T13:09:38.497Z,16.53
2023-03-21T13:10:43.789Z,16.50
2023-03-21T13:11:47.100Z,16.30
2023-03-21T13:13:31.079Z,16.52
2023-03-21T13:14:44.249Z,15.87
2023-03-21T13:15:54.794Z,16.02
2023-03-21T13:17:04.510Z,15.47
2023-03-21T13:18:32.995Z,14.88
2023-03-21T13:19:47.572Z,16.10
2023-03-21T13:20:58.422Z,16.58
2023-03-21T13:22:27.705Z,16.65
2023-03-21T13:23:38.569Z,17.13
2023-03-21T13:24:57.222Z,16.10
2023-03-21T13:25:58.985Z,14.72
2023-03-21T13:27:07.049Z,15.03
2023-03-21T13:28:20.081Z,15.68
2023-03-21T13:29:27.430Z,15.58
2023-03-21T13:30:31.504Z,15.00
2023-03-21T13:31:48.902Z,14.75
2023-03-21T13:33:07.174Z,15.55
2023-03-21T13:34:09.790Z,14.52
2023-03-21T13:35:33.134Z,14.32
2023-03-21T13:36:35.909Z,14.78
2023-03-21T13:37:42.152Z,15.55
2023-03-21T13:38:51.026Z,15.58
2023-03-21T13:39:52.617Z,15.67
2023-03-21T13:41:01.330Z,14.90
2023-03-21T13:42:05.634Z,14.55
2023-03-21T13:43:29.745Z,12.95
2023-03-21T13:44:50.371Z,12.80
2023-03-21T13:45:53.736Z,11.90
2023-03-21T13:47:02.841Z,11.52
2023-03-21T13:48:25.223Z,11.17
2023-03-21T13:49:36.046Z,12.45
2023-03-21T13:51:00.938Z,11.55
2023-03-21T13:52:11.833Z,15.70
2023-03-21T13:53:13.366Z,18.63
2023-03-21T13:54:17.320Z,18.15
2023-03-21T13:55:20.552Z,18.82
2023-03-21T13:56:23.631Z,22.52
2023-03-21T13:57:27.980Z,25.22
2023-03-21T13:58:37.658Z,21.97
2023-03-21T13:59:44.145Z,21.43
2023-03-21T14:01:20.046Z,22.03
2023-03-21T14:02:33.969Z,17.87
2023-03-21T14:03:35.679Z,17.37
2023-03-21T14:04:42.838Z,22.47
2023-03-21T14:05:56.941Z,18.33
2023-03-21T14:07:05.110Z,17.22
2023-03-21T14:08:17.229Z,23.78
2023-03-21T14:09:30.121Z,28.68
2023-03-21T14:10:42.146Z,19.20
2023-03-21T14:11:46.788Z,17.05
2023-03-21T14:12:49.963Z,16.87
2023-03-21T14:13:53.996Z,25.98
2023-03-21T14:15:18.156Z,46.92
2023-03-21T14:16:22.543Z,24.12
2023-03-21T14:17:27.675Z,16.53
2023-03-21T14:18:52.468Z,17.13
2023-03-21T14:19:56.151Z,20.02
2023-03-21T14:20:58.805Z,19.83
2023-03-21T14:22:00.365Z,16.27
2023-03-21T14:23:05.587Z,15.43
2023-03-21T14:24:20.442Z,18.47
2023-03-21T14:25:29.182Z,16.28
2023-03-21T14:26:37.750Z,16.05
2023-03-21T14:27:44.497Z,16.13
2023-03-21T14:28:51.261Z,16.68
2023-03-21T14:29:53.199Z,15.10
2023-03-21T14:30:58.769Z,15.87
2023-03-21T14:32:01.586Z,16.57
2023-03-21T14:33:16.913Z,17.32
2023-03-21T14:34:20.095Z,16.98
2023-03-21T14:35:22.347Z,17.80
2023-03-21T14:36:30.341Z,18.37
2023-03-21T14:37:43.469Z,14.95
2023-03-21T14:38:55.246Z,14.38
2023-03-21T14:40:00.405Z,15.52
2023-03-21T14:41:03.329Z,14.93
2023-03-21T14:42:07.629Z,23.53
2023-03-21T14:43:11.955Z,18.92
2023-03-21T14:44:18.438Z,19.50
2023-03-21T14:45:26.840Z,17.77
2023-03-21T14:46:28.513Z,19.55
2023-03-21T14:47:30.509Z,17.20
2023-03-21T14:48:34.543Z,15.95
2023-03-21T14:49:38.052Z,16.30
2023-03-21T14:50:55.453Z,17.87
2023-03-21T14:52:01.050Z,17.98
2023-03-21T14:53:03.230Z,17.48
2023-03-21T14:54:05.989Z,17.72
2023-03-21T14:55:16.671Z,17.28
2023-03-21T14:56:23.521Z,17.70
2023-03-21T14:57:30.512Z,16.03
2023-03-21T14:58:34.155Z,16.27
2023-03-21T14:59:39.162Z,16.35
2023-03-21T15:00:40.838Z,17.00
2023-03-21T15:01:44.520Z,16.80
2023-03-21T15:02:46.289Z,15.85
2023-03-21T15:03:51.444Z,17.02
2023-03-21T15:04:58.174Z,16.12
2023-03-21T15:06:01.291Z,15.75
2023-03-21T15:07:03.375Z,16.10
2023-03-21T15:08:12.811Z,15.82
2023-03-21T15:09:19.078Z,22.67
2023-03-21T15:10:21.091Z,57.07
2023-03-21T15:11:34.917Z,29.95
2023-03-21T15:12:36.533Z,38.07
2023-03-21T15:13:49.800Z,48.42
2023-03-21T15:14:51.890Z,17.77
2023-03-21T15:15:54.175Z,17.22
2023-03-21T15:16:57.482Z,17.08
2023-03-21T15:18:06.092Z,16.42
2023-03-21T15:19:16.334Z,14.57
2023-03-21T15:20:18.610Z,15.15
2023-03-21T15:21:25.453Z,14.92
2023-03-21T15:22:35.878Z,14.97
2023-03-21T15:23:41.900Z,13.73
2023-03-21T15:24:50.392Z,14.03
2023-03-21T15:25:53.311Z,13.05